Aérodrome :
LOGIN :

S'inscrire | Disclaimer

   EN    FR    IT 

 










Légende :    VFR   VFR Marginal   IFR   IFR Intensif   IFR Très Intensif
Visi : 
Plafond : 
>= 8 km
>= 3000ft
5 à 8 km
1000 à 3000 ft
1500m à 5 km
500 à 1000 ft
800 à 1500m
200 à 500 ft
< 800m
< 200 ft
Symboles :   Orages  Brouillard  Fortes neiges  Fortes précipitations  Vent > 20 kt
SIGMETs :   Divers  Orages  Givrage  Turbulence  Onde Orograph.  Cendres Volcan.






- Altitude de l'aérodrome : 495 ft
- Code IATA : BUD


LHBP - Budapest Ferihegy

DERNIER METAR :
  • 141230Z VRB02KT CAVOK 22/09 Q1015 NOSIG

METARs EXPIRÉS :
  • 141200Z 23004KT 150V270 CAVOK 22/10 Q1015 NOSIG
  • 141130Z VRB04KT CAVOK 22/10 Q1016 NOSIG
  • 141100Z 34005KT 290V020 9999 SCT049 21/10 Q1016 NOSIG
  • 141030Z 21006G16KT 150V260 9999 SCT049 21/11 Q1016 NOSIG
  • 141000Z VRB04KT 9999 SCT045 SCT290 21/10 Q1016 NOSIG
  • 140930Z 15004KT 090V220 9999 SCT040 BKN280 20/10 Q1016 NOSIG
  • 140900Z 18003KT 080V240 9999 FEW038 20/11 Q1016 NOSIG
  • 140830Z VRB03KT 9999 SCT032 19/10 Q1016 NOSIG
  • 140800Z VRB03KT 9999 SCT030 19/10 Q1016 NOSIG

TAF TAF LHBP
Valide du 14 à 12h jusqu'au 15 à 12h UTC


141115Z 1412/1512 VRB03KT CAVOK
TEMPO 1414/1417 27007KT
BECMG 1506/1510 17008KT



MET'MAP, la Météo Aéronautique d'un coup d'oeil ! - Copyright ORBIFLY Décembre 2007 - Disclaimer

ORBIFLY MET'MAP TEAM :

Programmation & Développement : Alexandra Zaïnal
Sur une idée originale de : Baudouin d'Aumeries
Soutien technique & logistique : Manuel Goepfert
Assistance : Marc-Olivier Méhu




SOURCES & CREDITS :

   NOAA